Time;durP1;ratioP1;P1;durP2;ratioP2;P2;SDS_P1;SDS_P2;PMS_P1;PMS_P2;Temp;Humidity;BMP_temperature;BMP_pressure;BME280_temperature;BME280_humidity;BME280_pressure;Samples;Min_cycle;Max_cycle;Signal;HPM_P1;HPM_P2
2021/06/30 00:00:23;;;;;;;;;16.50;11.50;;;;;17.25;70.03;100662.16;5072249;28;46816;-78
2021/06/30 00:02:48;;;;;;;;;16.00;11.00;;;;;17.34;70.29;100680.63;5058441;27;45777;-78
2021/06/30 00:05:14;;;;;;;;;12.00;10.25;;;;;17.32;70.45;100676.47;5066574;28;45888;-78
2021/06/30 00:07:39;;;;;;;;;10.50;10.50;;;;;17.27;70.48;100668.16;5070667;28;45709;-78
2021/06/30 00:10:08;;;;;;;;;12.00;10.00;;;;;17.31;70.49;100680.09;5066840;28;46688;-78
2021/06/30 00:12:33;;;;;;;;;16.00;12.25;;;;;17.24;70.33;100671.09;5072606;28;45709;-77
2021/06/30 00:15:00;;;;;;;;;10.50;10.00;;;;;17.29;70.48;100674.94;5071795;28;45779;-77
2021/06/30 00:17:25;;;;;;;;;13.00;11.00;;;;;17.29;70.63;100671.47;5072006;27;45617;-78
2021/06/30 00:19:51;;;;;;;;;12.00;10.25;;;;;17.29;70.48;100680.25;5068783;28;45764;-77
2021/06/30 00:22:16;;;;;;;;;8.50;8.50;;;;;17.28;70.76;100675.91;5071959;28;45911;-78
2021/06/30 00:24:42;;;;;;;;;10.00;9.50;;;;;17.28;70.54;100672.44;5071422;28;45730;-77
2021/06/30 00:27:07;;;;;;;;;7.75;7.50;;;;;17.25;70.70;100668.28;5086436;27;45953;-78
2021/06/30 00:29:32;;;;;;;;;8.00;7.25;;;;;17.19;70.79;100664.44;5065881;28;45663;-78
2021/06/30 00:31:58;;;;;;;;;8.25;7.50;;;;;17.26;71.01;100683.19;5075770;27;45714;-77
2021/06/30 00:34:23;;;;;;;;;6.75;6.75;;;;;17.25;70.84;100668.28;5075370;28;45719;-78
2021/06/30 00:36:49;;;;;;;;;6.00;5.75;;;;;17.20;71.15;100679.34;5071039;27;46035;-77
2021/06/30 00:39:16;;;;;;;;;6.50;6.00;;;;;17.23;70.92;100683.47;5076058;27;45554;-77
2021/06/30 00:41:44;;;;;;;;;8.00;7.50;;;;;17.18;71.37;100670.69;5076340;27;46182;-78
2021/06/30 00:44:11;;;;;;;;;8.50;7.75;;;;;17.09;71.26;100657.53;5079475;27;45986;-78
2021/06/30 00:46:37;;;;;;;;;7.75;7.00;;;;;17.14;71.29;100673.81;5078943;28;45852;-77
2021/06/30 00:49:06;;;;;;;;;5.25;5.25;;;;;17.13;71.50;100680.91;5077174;28;45782;-78
2021/06/30 00:51:32;;;;;;;;;6.25;5.00;;;;;17.10;71.61;100678.56;5078646;28;46094;-78
2021/06/30 00:53:58;;;;;;;;;5.75;5.00;;;;;17.06;71.36;100671.06;5071419;28;45784;-77
2021/06/30 00:56:27;;;;;;;;;5.50;4.25;;;;;17.05;71.87;100670.25;5078461;28;45958;-77
2021/06/30 00:58:55;;;;;;;;;6.50;6.00;;;;;16.98;71.79;100666.53;5074657;28;46434;-78
2021/06/30 01:01:22;;;;;;;;;8.25;7.00;;;;;16.88;71.63;100660.44;5067391;28;47819;-77
2021/06/30 01:03:48;;;;;;;;;7.00;6.50;;;;;16.96;72.56;100675.56;5068229;28;45827;-77
2021/06/30 01:06:14;;;;;;;;;9.50;7.00;;;;;16.99;72.24;100688.53;5074588;27;45690;-78
2021/06/30 01:08:39;;;;;;;;;7.00;6.75;;;;;16.95;72.65;100680.03;5074630;27;46139;-77
2021/06/30 01:11:05;;;;;;;;;8.50;6.75;;;;;16.88;73.29;100684.28;5069928;28;46005;-78
2021/06/30 01:13:31;;;;;;;;;8.75;7.00;;;;;16.83;73.28;100672.47;5074739;28;45739;-78
2021/06/30 01:15:56;;;;;;;;;6.75;6.00;;;;;16.81;73.72;100674.41;5074410;28;45624;-76
2021/06/30 01:18:24;;;;;;;;;9.25;7.75;;;;;16.81;74.14;100671.75;5074205;27;46173;-77
2021/06/30 01:20:51;;;;;;;;;6.75;6.00;;;;;16.75;74.53;100675.84;5074117;28;45517;-79
2021/06/30 01:23:18;;;;;;;;;10.00;8.50;;;;;16.67;74.99;100665.16;5073244;27;45770;-77
2021/06/30 01:25:44;;;;;;;;;8.25;8.00;;;;;16.62;75.71;100660.31;5073885;28;45621;-77
2021/06/30 01:28:09;;;;;;;;;8.25;6.75;;;;;16.47;75.29;100651.13;5073612;27;46218;-78
2021/06/30 01:30:35;;;;;;;;;9.25;9.00;;;;;16.61;76.14;100677.16;5074245;28;45656;-77
2021/06/30 01:33:00;;;;;;;;;8.75;7.75;;;;;16.52;76.34;100675.34;5074550;27;45808;-76
2021/06/30 01:35:28;;;;;;;;;9.00;7.25;;;;;16.53;76.55;100669.06;5069633;28;45834;-78
2021/06/30 01:37:54;;;;;;;;;6.00;6.00;;;;;16.49;77.36;100669.53;5066554;28;46476;-78
2021/06/30 01:40:21;;;;;;;;;8.75;7.00;;;;;16.42;77.11;100676.34;5074040;27;46036;-78
2021/06/30 01:42:47;;;;;;;;;10.25;7.75;;;;;16.36;76.55;100660.09;5074159;27;45819;-77
2021/06/30 01:45:13;;;;;;;;;8.50;8.00;;;;;16.32;77.12;100655.25;5068794;28;45791;-77
2021/06/30 01:47:39;;;;;;;;;6.50;6.50;;;;;16.35;76.91;100657.63;5073720;28;45729;-77
2021/06/30 01:50:05;;;;;;;;;7.00;6.75;;;;;16.36;77.50;100664.53;5066054;28;45730;-76
2021/06/30 01:52:31;;;;;;;;;10.00;7.75;;;;;16.35;77.61;100660.25;5073843;28;45739;-78
2021/06/30 01:54:57;;;;;;;;;7.50;7.00;;;;;16.35;77.81;100665.56;5073761;27;45527;-78
2021/06/30 01:57:23;;;;;;;;;7.75;6.75;;;;;16.27;77.63;100666.25;5073346;28;45577;-78
2021/06/30 01:59:48;;;;;;;;;8.00;7.00;;;;;16.31;77.52;100683.50;5073226;28;46144;-76
2021/06/30 02:02:14;;;;;;;;;8.50;7.50;;;;;16.25;77.61;100659.44;5060383;27;46479;-78
2021/06/30 02:04:41;;;;;;;;;5.75;4.75;;;;;16.22;77.84;100668.50;5066023;27;45630;-77
2021/06/30 02:07:07;;;;;;;;;7.00;6.00;;;;;16.28;77.52;100665.28;5067066;28;45718;-76
2021/06/30 02:09:32;;;;;;;;;9.00;7.25;;;;;16.21;78.27;100685.34;5064513;28;46296;-78
2021/06/30 02:11:58;;;;;;;;;10.00;10.00;;;;;16.24;78.83;100682.41;5067366;28;45752;-76
2021/06/30 02:14:24;;;;;;;;;12.00;10.00;;;;;16.18;78.73;100668.94;5073451;27;45726;-78
2021/06/30 02:16:49;;;;;;;;;10.50;8.25;;;;;16.18;78.87;100672.41;5073158;28;45776;-78
2021/06/30 02:19:15;;;;;;;;;8.75;8.75;;;;;16.19;79.57;100678.53;5068327;27;46058;-77
2021/06/30 02:21:41;;;;;;;;;9.25;9.00;;;;;16.14;79.81;100676.28;5072387;27;45654;-78
2021/06/30 02:24:06;;;;;;;;;9.00;7.75;;;;;16.13;79.20;100682.59;5073290;28;45558;-78
2021/06/30 02:26:34;;;;;;;;;9.50;8.75;;;;;16.12;79.69;100688.84;5073277;28;46477;-78
2021/06/30 02:29:00;;;;;;;;;9.00;7.50;;;;;16.11;79.43;100691.63;5059666;28;46236;-78
2021/06/30 02:31:25;;;;;;;;;10.50;8.50;;;;;16.06;79.42;100673.56;5073447;28;45618;-78
2021/06/30 02:33:51;;;;;;;;;11.00;10.00;;;;;16.09;79.29;100675.06;5072799;28;45976;-77
2021/06/30 02:36:17;;;;;;;;;10.75;10.00;;;;;16.02;78.97;100676.63;5071557;27;46568;-77
2021/06/30 02:38:43;;;;;;;;;9.75;9.00;;;;;16.10;78.96;100692.59;5072557;27;47168;-78
2021/06/30 02:41:08;;;;;;;;;12.00;10.00;;;;;16.11;78.73;100697.75;5071883;28;46191;-78
2021/06/30 02:43:34;;;;;;;;;11.00;10.00;;;;;16.12;78.92;100682.72;5071505;28;45993;-78
2021/06/30 02:45:59;;;;;;;;;10.00;9.50;;;;;16.06;78.85;100684.13;5073145;27;46288;-77
2021/06/30 02:48:25;;;;;;;;;12.75;10.00;;;;;16.13;78.92;100695.81;5072802;27;45965;-78
2021/06/30 02:50:52;;;;;;;;;9.50;8.00;;;;;16.15;78.63;100688.53;5074035;28;45721;-78
2021/06/30 02:53:18;;;;;;;;;12.00;10.50;;;;;16.14;78.92;100696.63;5072545;27;45983;-77
2021/06/30 02:55:43;;;;;;;;;11.25;11.00;;;;;16.11;78.64;100692.47;5080030;28;47433;-78
2021/06/30 02:58:09;;;;;;;;;7.50;7.25;;;;;16.04;78.77;100680.78;5079095;28;46095;-78
2021/06/30 03:00:34;;;;;;;;;11.25;11.00;;;;;16.15;78.33;100707.06;5072886;28;46191;-78
2021/06/30 03:03:00;;;;;;;;;11.25;10.00;;;;;16.10;78.81;100695.22;5065802;28;45603;-78
2021/06/30 03:05:25;;;;;;;;;11.00;9.75;;;;;16.14;78.26;100688.72;5078288;28;45629;-79
2021/06/30 03:07:51;;;;;;;;;10.50;9.50;;;;;16.19;78.69;100712.91;5073367;28;45595;-78
2021/06/30 03:10:17;;;;;;;;;11.00;10.00;;;;;16.08;78.25;100682.19;5060129;27;45751;-77
2021/06/30 03:12:43;;;;;;;;;10.00;10.00;;;;;16.19;78.83;100713.75;5072894;28;45881;-77
2021/06/30 03:15:10;;;;;;;;;13.50;12.25;;;;;16.18;78.36;100709.44;5072834;28;47334;-77
2021/06/30 03:17:37;;;;;;;;;11.00;10.75;;;;;16.19;78.27;100710.25;5072259;27;46141;-78
2021/06/30 03:20:08;;;;;;;;;11.00;10.75;;;;;16.15;78.67;100693.00;5072634;27;45594;-78
2021/06/30 03:22:33;;;;;;;;;10.25;9.75;;;;;16.16;78.45;100690.22;5085002;27;45948;-79
2021/06/30 03:24:59;;;;;;;;;10.25;9.50;;;;;16.18;78.23;100705.94;5065844;28;47372;-78
2021/06/30 03:27:24;;;;;;;;;11.25;10.00;;;;;16.21;78.54;100709.13;5070799;28;46360;-78
2021/06/30 03:29:50;;;;;;;;;10.50;9.25;;;;;16.22;78.73;100702.03;5088051;27;46289;-78
2021/06/30 03:32:16;;;;;;;;;11.50;11.00;;;;;16.22;78.50;100713.44;5072595;28;45776;-79
2021/06/30 03:34:41;;;;;;;;;11.75;10.00;;;;;16.22;78.25;100705.50;5071556;27;46628;-79
2021/06/30 03:37:07;;;;;;;;;10.25;9.75;;;;;16.21;77.85;100703.84;5069591;28;46107;-78
2021/06/30 03:39:32;;;;;;;;;13.00;11.00;;;;;16.26;77.57;100708.69;5072224;27;45840;-78
2021/06/30 03:41:57;;;;;;;;;11.75;10.50;;;;;16.28;78.36;100704.94;5072398;27;45695;-78
2021/06/30 03:44:23;;;;;;;;;11.00;10.75;;;;;16.29;77.96;100706.63;5058372;27;46333;-78
2021/06/30 03:46:50;;;;;;;;;14.25;12.00;;;;;16.26;77.77;100720.09;5071935;28;46213;-77
2021/06/30 03:49:16;;;;;;;;;11.00;8.50;;;;;16.21;77.39;100703.00;5071634;27;46669;-77
2021/06/30 03:51:41;;;;;;;;;11.00;10.00;;;;;16.19;77.35;100705.81;5070700;28;45903;-78
2021/06/30 03:54:09;;;;;;;;;12.25;10.50;;;;;16.29;77.79;100722.47;5071704;28;47282;-78
2021/06/30 03:56:34;;;;;;;;;10.00;9.25;;;;;16.29;77.34;100708.44;5071464;28;46201;-78
2021/06/30 03:59:00;;;;;;;;;12.50;11.75;;;;;16.30;77.81;100710.09;5063430;28;45830;-78
2021/06/30 04:01:25;;;;;;;;;11.25;9.00;;;;;16.23;77.90;100712.47;5066198;27;45613;-78
2021/06/30 04:04:01;;;;;;;;;12.00;11.00;;;;;16.30;77.18;100718.03;5068100;28;45790;-77
2021/06/30 04:06:26;;;;;;;;;10.75;10.00;;;;;16.31;77.61;100719.69;5070827;27;46225;-78
2021/06/30 04:08:51;;;;;;;;;10.00;8.75;;;;;16.30;77.24;100718.03;5069196;28;45712;-78
2021/06/30 04:11:17;;;;;;;;;11.50;11.00;;;;;16.29;77.53;100716.34;5072834;27;45811;-78
2021/06/30 04:13:44;;;;;;;;;11.00;10.00;;;;;16.28;77.16;100718.16;5074825;27;46413;-77
2021/06/30 04:16:09;;;;;;;;;12.25;10.25;;;;;16.28;77.12;100707.59;5075229;27;46409;-79
2021/06/30 04:18:35;;;;;;;;;10.25;10.00;;;;;16.28;76.89;100725.25;5060744;27;46149;-78
2021/06/30 04:21:00;;;;;;;;;12.50;11.50;;;;;16.28;76.89;100715.53;5075535;28;46515;-77
2021/06/30 04:23:26;;;;;;;;;11.00;10.00;;;;;16.25;76.69;100717.59;5065206;28;45633;-76
2021/06/30 04:25:51;;;;;;;;;11.75;9.25;;;;;16.27;76.64;100720.94;5075253;28;46019;-77
2021/06/30 04:28:17;;;;;;;;;11.50;11.00;;;;;16.29;76.49;100726.94;5074907;28;45585;-77
2021/06/30 04:30:43;;;;;;;;;9.50;8.25;;;;;16.29;76.85;100722.47;5075540;27;45758;-77
2021/06/30 04:33:08;;;;;;;;;12.25;9.75;;;;;16.30;76.18;100728.59;5074931;27;46304;-78
2021/06/30 04:35:34;;;;;;;;;11.50;10.25;;;;;16.25;76.29;100714.94;5061869;27;46098;-79
2021/06/30 04:38:01;;;;;;;;;9.75;8.75;;;;;16.30;75.94;100731.25;5068573;28;45762;-79
2021/06/30 04:40:27;;;;;;;;;10.75;9.75;;;;;16.28;75.95;100720.81;5075585;27;45884;-77
2021/06/30 04:42:52;;;;;;;;;8.75;8.25;;;;;16.31;75.92;100730.25;5075118;27;45982;-78
2021/06/30 04:45:18;;;;;;;;;8.75;8.25;;;;;16.25;75.53;100723.72;5074604;28;45960;-78
2021/06/30 04:47:44;;;;;;;;;9.25;8.50;;;;;16.28;75.70;100736.69;5074500;28;45495;-78
2021/06/30 04:50:10;;;;;;;;;7.75;6.75;;;;;16.28;75.64;100736.69;5075319;28;45997;-77
2021/06/30 04:52:36;;;;;;;;;11.00;9.50;;;;;16.28;75.84;100733.19;5074495;28;46484;-77
2021/06/30 04:55:02;;;;;;;;;10.00;9.25;;;;;16.27;75.64;100735.00;5074442;28;45635;-78
2021/06/30 04:57:28;;;;;;;;;10.25;8.00;;;;;16.25;75.74;100725.53;5074530;28;45754;-78
2021/06/30 04:59:53;;;;;;;;;9.75;8.50;;;;;16.23;76.06;100727.50;5066527;27;45719;-77
2021/06/30 05:02:19;;;;;;;;;10.75;7.75;;;;;15.90;76.01;100676.78;5061295;27;45683;-79
2021/06/30 05:04:45;;;;;;;;;8.00;7.75;;;;;16.20;76.01;100723.31;5073297;28;48368;-78
2021/06/30 05:07:11;;;;;;;;;9.75;8.25;;;;;16.21;76.06;100732.09;5075952;27;45662;-78
2021/06/30 05:09:36;;;;;;;;;11.25;10.50;;;;;16.22;75.73;100731.13;5069783;27;45664;-79
2021/06/30 05:12:02;;;;;;;;;7.00;6.25;;;;;16.17;75.97;100733.34;5077249;28;46320;-79
2021/06/30 05:14:27;;;;;;;;;10.00;8.50;;;;;16.15;75.49;100724.72;5078090;27;45723;-77
2021/06/30 05:16:52;;;;;;;;;11.50;8.75;;;;;16.21;75.77;100732.91;5079608;28;45696;-77
2021/06/30 05:19:18;;;;;;;;;8.75;8.00;;;;;16.24;75.76;100734.47;5081823;27;45582;-77
2021/06/30 05:21:43;;;;;;;;;8.00;7.50;;;;;16.25;75.68;100736.94;5080970;28;45622;-78
2021/06/30 05:24:09;;;;;;;;;8.25;6.50;;;;;16.25;75.43;100734.28;5080818;27;45671;-78
2021/06/30 05:26:34;;;;;;;;;7.25;6.50;;;;;16.25;75.87;100734.28;5079901;27;45596;-77
2021/06/30 05:28:59;;;;;;;;;7.00;7.00;;;;;16.26;75.51;100745.72;5081768;28;45525;-79
2021/06/30 05:31:25;;;;;;;;;8.25;8.25;;;;;16.25;75.49;100738.75;5075796;28;47693;-78
2021/06/30 05:33:52;;;;;;;;;8.00;8.00;;;;;16.24;76.00;100745.88;5074325;28;45751;-78
2021/06/30 05:36:17;;;;;;;;;11.00;10.50;;;;;16.28;75.73;100751.69;5073780;28;45801;-78
2021/06/30 05:38:42;;;;;;;;;9.00;8.00;;;;;16.27;75.27;100756.16;5074484;27;45832;-78
2021/06/30 05:41:12;;;;;;;;;11.00;8.25;;;;;16.15;75.30;100741.41;5072889;28;48181;-78
2021/06/30 05:43:38;;;;;;;;;10.00;9.00;;;;;16.08;75.10;100719.19;5062688;27;48131;-78
2021/06/30 05:46:06;;;;;;;;;11.50;9.75;;;;;16.21;75.02;100735.56;5057056;28;45691;-78
2021/06/30 05:48:32;;;;;;;;;8.25;8.25;;;;;16.28;75.13;100759.63;5073111;27;46196;-78
2021/06/30 05:50:58;;;;;;;;;9.75;9.75;;;;;16.25;75.19;100752.81;5061658;28;46468;-79
2021/06/30 05:53:29;;;;;;;;;8.50;7.75;;;;;16.21;75.12;100746.13;5073729;27;46146;-78
2021/06/30 05:55:58;;;;;;;;;8.25;7.00;;;;;16.23;75.29;100743.38;5073307;27;45701;-78
2021/06/30 05:58:26;;;;;;;;;8.25;8.00;;;;;16.20;74.98;100755.03;5076720;27;45853;-77
2021/06/30 06:00:55;;;;;;;;;11.00;10.00;;;;;16.16;75.38;100748.38;5072417;27;46072;-78
2021/06/30 06:03:20;;;;;;;;;10.00;8.75;;;;;16.18;75.23;100742.97;5062216;28;46467;-78
2021/06/30 06:05:45;;;;;;;;;10.50;9.75;;;;;16.28;75.19;100762.28;5073606;27;46180;-76
2021/06/30 06:08:11;;;;;;;;;8.50;8.00;;;;;16.27;75.16;100765.88;5063410;27;45795;-78
2021/06/30 06:10:36;;;;;;;;;8.75;8.25;;;;;16.26;75.09;100761.56;5069700;28;46221;-78
2021/06/30 06:13:02;;;;;;;;;9.75;9.00;;;;;16.27;75.48;100781.75;5073406;27;46004;-78
2021/06/30 06:15:27;;;;;;;;;10.00;9.00;;;;;16.22;75.22;100762.84;5073534;28;45657;-79
2021/06/30 06:17:53;;;;;;;;;8.00;6.50;;;;;16.16;75.59;100768.69;5065500;27;45855;-79
2021/06/30 06:20:18;;;;;;;;;6.00;6.00;;;;;16.21;75.44;100780.50;5073206;28;45769;-78
2021/06/30 06:22:44;;;;;;;;;7.00;5.25;;;;;16.17;75.00;100784.41;5073164;27;46301;-79
2021/06/30 06:25:10;;;;;;;;;9.00;7.50;;;;;16.15;75.58;100783.72;5071664;27;46051;-79
2021/06/30 06:27:38;;;;;;;;;7.00;7.00;;;;;16.11;75.38;100776.22;5073290;28;45865;-78
2021/06/30 06:30:07;;;;;;;;;8.00;7.00;;;;;16.00;75.70;100763.97;5073115;28;45613;-78
2021/06/30 06:32:32;;;;;;;;;9.00;9.00;;;;;15.93;75.26;100765.50;5073251;28;45631;-77
2021/06/30 06:34:58;;;;;;;;;8.00;7.00;;;;;16.04;75.59;100780.38;5071164;27;46155;-79
2021/06/30 06:37:23;;;;;;;;;9.25;7.25;;;;;16.04;75.52;100783.84;5062404;28;45815;-79
2021/06/30 06:39:49;;;;;;;;;7.00;6.25;;;;;16.04;75.48;100790.94;5072990;27;46476;-78
2021/06/30 06:42:14;;;;;;;;;9.25;7.00;;;;;15.92;76.00;100777.06;5073225;27;46474;-78
2021/06/30 06:44:41;;;;;;;;;6.25;5.00;;;;;16.02;75.89;100791.09;5072140;27;46158;-78
2021/06/30 06:47:07;;;;;;;;;6.50;6.50;;;;;15.99;75.93;100801.09;5073090;27;45690;-78
2021/06/30 06:49:33;;;;;;;;;6.50;6.00;;;;;15.96;76.06;100799.59;5072566;27;46463;-78
2021/06/30 06:51:59;;;;;;;;;4.75;4.50;;;;;15.88;76.23;100789.69;5064848;27;47242;-80
2021/06/30 06:54:25;;;;;;;;;9.00;8.25;;;;;15.93;76.34;100797.22;5070981;28;46041;-78
2021/06/30 06:56:50;;;;;;;;;8.00;6.25;;;;;15.87;76.84;100792.50;5084768;27;45941;-78
2021/06/30 06:59:16;;;;;;;;;8.00;7.00;;;;;15.89;76.55;100799.31;5069148;28;46294;-78
2021/06/30 07:01:41;;;;;;;;;7.00;7.00;;;;;15.88;76.56;100800.28;5063287;28;46430;-77
2021/06/30 07:04:07;;;;;;;;;9.50;8.50;;;;;15.84;76.42;100790.13;5068147;28;46037;-78
2021/06/30 07:06:32;;;;;;;;;7.00;7.00;;;;;15.90;76.12;100794.84;5072491;28;45719;-79
2021/06/30 07:08:57;;;;;;;;;11.50;9.00;;;;;15.80;76.12;100781.66;5070346;27;46197;-78
2021/06/30 07:11:23;;;;;;;;;9.50;9.00;;;;;15.86;76.39;100794.31;5072846;28;46309;-78
2021/06/30 07:13:48;;;;;;;;;10.75;9.00;;;;;15.75;76.26;100768.03;5072337;28;45861;-77
2021/06/30 07:16:14;;;;;;;;;10.50;9.75;;;;;15.94;76.45;100802.34;5072911;27;45688;-79
2021/06/30 07:18:40;;;;;;;;;10.50;9.00;;;;;15.89;76.27;100790.53;5072143;27;45696;-80
2021/06/30 07:21:08;;;;;;;;;8.00;8.00;;;;;15.97;75.81;100806.56;5072719;28;45652;-78
2021/06/30 07:23:34;;;;;;;;;12.00;10.50;;;;;15.99;75.92;100806.38;5072083;27;45577;-78
2021/06/30 07:25:59;;;;;;;;;8.75;8.50;;;;;16.02;76.03;100806.97;5072018;27;45983;-78
2021/06/30 07:28:26;;;;;;;;;9.50;9.00;;;;;15.96;76.13;100802.22;5071861;27;46694;-79
2021/06/30 07:30:52;;;;;;;;;8.50;7.00;;;;;16.00;76.31;100808.91;5072702;28;45999;-78
2021/06/30 07:33:17;;;;;;;;;10.25;7.00;;;;;16.02;76.21;100799.03;5072242;27;45582;-79
2021/06/30 07:35:43;;;;;;;;;6.75;6.75;;;;;16.01;75.97;100805.28;5065376;28;46071;-79
2021/06/30 07:38:09;;;;;;;;;11.50;7.75;;;;;16.01;76.38;100805.28;5067279;28;45740;-77
2021/06/30 07:40:35;;;;;;;;;8.00;7.25;;;;;16.02;76.11;100804.31;5072371;28;45703;-77
2021/06/30 07:43:01;;;;;;;;;8.50;8.25;;;;;16.03;76.13;100816.56;5067525;27;45752;-79
2021/06/30 07:45:26;;;;;;;;;10.50;9.00;;;;;15.95;76.07;100803.19;5078662;27;45828;-77
2021/06/30 07:47:53;;;;;;;;;9.00;8.00;;;;;16.01;76.22;100823.78;5076673;28;46468;-78
2021/06/30 07:50:19;;;;;;;;;8.25;7.00;;;;;16.08;75.75;100827.56;5076552;28;45458;-77
2021/06/30 07:52:48;;;;;;;;;8.75;8.25;;;;;16.09;75.71;100833.66;5075929;28;45556;-78
2021/06/30 07:55:13;;;;;;;;;7.25;7.00;;;;;16.09;75.67;100823.91;5075397;28;46099;-79
2021/06/30 07:57:39;;;;;;;;;12.75;11.00;;;;;16.10;75.21;100827.41;5075150;28;46490;-80
2021/06/30 08:00:06;;;;;;;;;8.00;8.00;;;;;16.13;75.39;100824.50;5063196;28;45891;-78
2021/06/30 08:02:33;;;;;;;;;9.50;8.75;;;;;16.18;75.04;100819.63;5085746;27;45843;-79
2021/06/30 08:04:59;;;;;;;;;11.25;8.75;;;;;16.23;75.09;100818.22;5072304;28;45764;-79
2021/06/30 08:07:24;;;;;;;;;8.50;8.50;;;;;16.30;75.25;100823.78;5071397;28;46502;-79
2021/06/30 08:09:50;;;;;;;;;11.25;9.25;;;;;16.32;74.58;100816.53;5053674;28;47922;-78
2021/06/30 08:12:15;;;;;;;;;10.00;8.00;;;;;16.40;74.81;100813.19;5071750;28;45939;-79
2021/06/30 08:14:41;;;;;;;;;8.25;8.00;;;;;16.41;74.87;100814.88;5071637;28;45598;-78
2021/06/30 08:17:06;;;;;;;;;9.00;8.75;;;;;16.46;74.82;100818.78;5068180;28;47348;-78
2021/06/30 08:19:32;;;;;;;;;10.00;9.50;;;;;16.48;74.43;100818.59;5071468;28;46273;-79
2021/06/30 08:21:58;;;;;;;;;7.75;6.50;;;;;16.46;74.44;100816.13;5071518;28;45786;-78
2021/06/30 08:24:25;;;;;;;;;9.00;8.25;;;;;16.50;74.52;100817.50;5071323;28;45625;-77
2021/06/30 08:26:51;;;;;;;;;9.00;8.00;;;;;16.54;74.12;100820.69;5069755;28;48482;-77
2021/06/30 08:29:19;;;;;;;;;9.75;9.75;;;;;16.59;74.48;100823.78;5071706;28;47114;-78
2021/06/30 08:31:44;;;;;;;;;11.00;10.00;;;;;16.59;73.99;100814.03;5037064;28;45730;-78
2021/06/30 08:34:10;;;;;;;;;10.75;9.25;;;;;16.70;73.81;100832.38;5071209;28;45966;-79
2021/06/30 08:36:35;;;;;;;;;11.25;9.75;;;;;16.70;73.87;100819.16;5055843;28;47226;-78
2021/06/30 08:39:00;;;;;;;;;12.25;10.00;;;;;16.74;73.73;100823.16;5036651;28;46022;-78
2021/06/30 08:41:26;;;;;;;;;9.25;9.25;;;;;16.77;73.50;100835.28;5053587;28;45718;-78
2021/06/30 08:43:51;;;;;;;;;11.75;10.00;;;;;16.81;73.82;100828.72;5070528;28;45756;-78
2021/06/30 08:46:21;;;;;;;;;11.00;9.25;;;;;16.82;73.23;100825.13;5071188;28;46480;-79
2021/06/30 08:48:49;;;;;;;;;10.25;10.00;;;;;16.83;73.14;100821.50;5073206;28;46181;-78
2021/06/30 08:51:22;;;;;;;;;10.75;8.75;;;;;16.87;72.89;100827.31;5071050;28;45799;-78
2021/06/30 08:53:48;;;;;;;;;9.25;7.75;;;;;16.91;73.11;100818.94;5074651;28;45950;-78
2021/06/30 08:56:13;;;;;;;;;10.75;9.75;;;;;16.97;72.91;100822.81;5074446;28;46813;-78
2021/06/30 08:58:39;;;;;;;;;8.50;8.50;;;;;16.98;72.67;100809.47;5074475;28;46040;-79
2021/06/30 09:01:04;;;;;;;;;9.25;9.00;;;;;17.07;72.61;100815.69;5070488;28;45769;-79
2021/06/30 09:03:30;;;;;;;;;8.50;8.00;;;;;17.02;72.25;100807.34;5064908;28;45890;-78
2021/06/30 09:08:42;;;;;;;;;9.50;6.25;;;;;17.13;72.32;100812.47;5079262;27;46047;-78
2021/06/30 09:11:12;;;;;;;;;11.50;9.25;;;;;17.14;71.96;100806.19;5074759;28;45814;-79
2021/06/30 09:13:37;;;;;;;;;11.50;11.00;;;;;17.26;71.54;100823.56;5074311;28;45967;-79
2021/06/30 09:16:03;;;;;;;;;11.00;10.75;;;;;17.30;71.73;100810.84;5074284;28;45775;-79
2021/06/30 09:18:36;;;;;;;;;12.25;12.25;;;;;17.28;71.97;100808.34;5073847;28;46031;-78
2021/06/30 09:21:21;;;;;;;;;11.00;10.25;;;;;17.40;71.84;100824.88;5074028;28;45711;-79
2021/06/30 09:24:00;;;;;;;;;6.75;6.00;;;;;17.43;71.47;100825.44;5070278;28;45736;-78
2021/06/30 09:26:28;;;;;;;;;12.50;11.75;;;;;17.41;71.35;100814.13;5073819;28;45818;-78
2021/06/30 09:29:13;;;;;;;;;12.00;10.50;;;;;17.42;71.41;100823.75;5073833;28;46066;-79
2021/06/30 09:31:44;;;;;;;;;11.25;10.75;;;;;17.44;71.05;100816.47;5074096;28;45885;-79
2021/06/30 09:34:10;;;;;;;;;13.00;12.25;;;;;17.52;71.09;100843.06;5074147;28;45756;-77
2021/06/30 09:36:54;;;;;;;;;12.25;12.00;;;;;17.55;71.04;100836.63;5073279;28;45777;-79
2021/06/30 09:39:20;;;;;;;;;11.75;11.25;;;;;17.53;70.70;100818.25;5073819;28;46093;-78
2021/06/30 09:41:46;;;;;;;;;13.00;13.00;;;;;17.54;70.92;100819.09;5062656;28;45722;-79
2021/06/30 09:44:14;;;;;;;;;13.25;11.00;;;;;17.59;71.16;100828.28;5073597;28;45610;-78
2021/06/30 09:46:42;;;;;;;;;11.00;10.00;;;;;17.67;70.96;100834.66;5073304;28;46346;-76
2021/06/30 09:49:13;;;;;;;;;11.25;11.00;;;;;17.73;70.42;100839.34;5074124;28;45912;-79
2021/06/30 09:51:40;;;;;;;;;11.00;10.00;;;;;17.70;70.10;100832.56;5073958;28;46206;-79
2021/06/30 09:54:08;;;;;;;;;13.75;13.00;;;;;17.78;70.09;100851.19;5073493;28;45704;-79
2021/06/30 09:56:35;;;;;;;;;12.75;11.50;;;;;17.80;70.07;100843.09;5055993;28;46583;-80
2021/06/30 09:59:19;;;;;;;;;12.00;12.00;;;;;17.79;69.96;100846.72;5068836;28;46142;-79
2021/06/30 10:01:55;;;;;;;;;11.25;10.75;;;;;17.64;69.96;100837.59;5064151;28;46045;-80
2021/06/30 10:04:31;;;;;;;;;10.75;9.75;;;;;17.71;69.89;100846.59;5070774;28;45599;-78
2021/06/30 10:07:02;;;;;;;;;12.50;11.00;;;;;17.67;69.83;100830.19;5073593;28;46339;-76
2021/06/30 10:09:28;;;;;;;;;13.00;12.00;;;;;17.79;69.31;100863.44;5073585;28;46000;-78
2021/06/30 10:11:58;;;;;;;;;11.25;11.00;;;;;17.78;69.30;100845.88;5074116;28;45673;-79
2021/06/30 10:14:26;;;;;;;;;12.75;12.00;;;;;17.77;69.23;100856.63;5070033;28;45739;-78
2021/06/30 10:16:51;;;;;;;;;12.50;11.00;;;;;17.75;69.50;100843.53;5073931;28;46657;-76
2021/06/30 10:19:17;;;;;;;;;12.75;10.00;;;;;17.84;69.20;100860.34;5080899;28;45712;-78
2021/06/30 10:21:43;;;;;;;;;12.50;11.25;;;;;17.88;69.02;100862.53;5080221;28;45751;-77
2021/06/30 10:24:09;;;;;;;;;10.00;9.50;;;;;17.91;69.30;100862.25;5079608;28;45721;-78
2021/06/30 10:26:34;;;;;;;;;11.75;11.00;;;;;17.89;69.27;100844.81;5078965;28;45616;-79
2021/06/30 10:29:01;;;;;;;;;12.00;10.75;;;;;17.94;69.36;100843.38;5076826;28;45919;-79
2021/06/30 10:31:34;;;;;;;;;9.75;9.50;;;;;18.06;68.88;100867.03;5068537;28;45736;-78
2021/06/30 10:34:07;;;;;;;;;7.75;7.50;;;;;18.10;68.50;100858.63;5060224;28;45675;-78
2021/06/30 10:36:48;;;;;;;;;10.50;10.00;;;;;18.15;68.49;100853.69;5070997;28;46230;-79
2021/06/30 10:39:38;;;;;;;;;9.50;9.50;;;;;18.06;68.49;100838.69;5072988;28;46025;-78
2021/06/30 10:42:33;;;;;;;;;10.00;9.50;;;;;18.23;68.60;100840.53;5073261;28;46108;-77
2021/06/30 10:45:02;;;;;;;;;10.00;8.00;;;;;18.30;68.54;100846.06;5029788;28;45704;-78
2021/06/30 10:47:51;;;;;;;;;11.25;11.00;;;;;18.28;68.19;100829.44;5029869;28;46811;-77
2021/06/30 10:50:17;;;;;;;;;12.75;11.00;;;;;18.39;67.90;100843.31;5030205;28;45911;-79
2021/06/30 10:52:46;;;;;;;;;9.00;9.00;;;;;18.41;67.46;100841.31;5029831;28;45821;-77
2021/06/30 10:55:33;;;;;;;;;10.00;9.75;;;;;18.40;67.27;100844.97;5030098;28;45718;-77
2021/06/30 10:58:14;;;;;;;;;12.50;10.00;;;;;18.41;67.13;100851.09;5029357;28;46446;-77
2021/06/30 11:00:48;;;;;;;;;10.00;9.50;;;;;18.40;67.75;100855.59;5029940;28;46702;-78
2021/06/30 11:03:38;;;;;;;;;10.75;10.75;;;;;18.41;67.48;100857.25;5029561;28;45730;-79
2021/06/30 11:06:10;;;;;;;;;13.00;11.00;;;;;18.41;67.22;100862.53;5029792;28;45655;-78
2021/06/30 11:09:00;;;;;;;;;11.25;10.75;;;;;18.41;67.24;100851.94;5029580;28;45841;-78
2021/06/30 11:11:37;;;;;;;;;12.50;12.25;;;;;18.41;66.76;100867.84;5029467;28;47046;-78
2021/06/30 11:14:09;;;;;;;;;12.75;11.00;;;;;18.35;66.13;100847.22;5029405;28;46108;-77
2021/06/30 11:16:38;;;;;;;;;11.00;10.25;;;;;18.44;66.35;100872.03;5029741;28;45783;-77
2021/06/30 11:19:05;;;;;;;;;12.75;12.75;;;;;18.30;66.16;100836.25;5029751;28;45722;-77
2021/06/30 11:21:50;;;;;;;;;11.50;10.75;;;;;18.45;65.45;100877.19;5037206;28;45999;-78